VIV7089 MMLP-MMCL
Flight info
| Callsign | VIV7089 |
|---|---|
| Flight time | N/A |
| Altitude | 17000 |
| Route | MMLP MANU2B MANUS DCT ILAVI ILAV1C MMCL |
| Aircraft | A20N/M-VGDW/C |
Departure
| Time | 2026-05-04 18:49 |
|---|---|
| Airport | Manuel Márquez de León International Airport (MMLP) |
Arrival
| Time | N/A |
|---|---|
| Airport | Bachigualato Federal International Airport (MMCL) |
| Time | Latitude | Longitude | Altitude | Speed | Heading |
|---|---|---|---|---|---|
| 2026-05-04 18:29 | 24.09192 | -110.36429 | 65 ft | 0 kts | 7° |
| 2026-05-04 18:32 | 24.09193 | -110.36429 | 64 ft | 0 kts | 7° |
| 2026-05-04 18:39 | 24.09185 | -110.36430 | 64 ft | 3 kts | 7° |
| 2026-05-04 18:39 | 24.09163 | -110.36433 | 64 ft | 0 kts | 7° |
| 2026-05-04 18:43 | 24.09169 | -110.36432 | 64 ft | 0 kts | 26° |
| 2026-05-04 18:44 | 24.09169 | -110.36427 | 64 ft | 0 kts | 115° |
| 2026-05-04 18:44 | 24.09166 | -110.36423 | 64 ft | 2 kts | 141° |
| 2026-05-04 18:44 | 24.09142 | -110.36384 | 64 ft | 5 kts | 120° |
| 2026-05-04 18:44 | 24.09135 | -110.36339 | 64 ft | 6 kts | 98° |
| 2026-05-04 18:45 | 24.09109 | -110.36289 | 64 ft | 8 kts | 125° |
| 2026-05-04 18:45 | 24.09060 | -110.36277 | 64 ft | 9 kts | 232° |
| 2026-05-04 18:45 | 24.09055 | -110.36288 | 64 ft | 0 kts | 253° |
| 2026-05-04 18:46 | 24.09035 | -110.36301 | 64 ft | 6 kts | 150° |
| 2026-05-04 18:46 | 24.08979 | -110.36268 | 64 ft | 9 kts | 163° |
| 2026-05-04 18:46 | 24.08925 | -110.36243 | 64 ft | 8 kts | 156° |
| 2026-05-04 18:46 | 24.08867 | -110.36221 | 65 ft | 9 kts | 166° |
| 2026-05-04 18:47 | 24.08804 | -110.36212 | 66 ft | 9 kts | 173° |
| 2026-05-04 18:47 | 24.08737 | -110.36203 | 67 ft | 9 kts | 173° |
| 2026-05-04 18:47 | 24.08668 | -110.36195 | 68 ft | 10 kts | 173° |
| 2026-05-04 18:47 | 24.08584 | -110.36184 | 70 ft | 13 kts | 174° |
| 2026-05-04 18:48 | 24.08480 | -110.36169 | 71 ft | 16 kts | 171° |
| 2026-05-04 18:48 | 24.08357 | -110.36146 | 71 ft | 19 kts | 170° |
| 2026-05-04 18:48 | 24.08199 | -110.36133 | 71 ft | 38 kts | 185° |
| 2026-05-04 18:48 | 24.07584 | -110.36212 | 81 ft | 133 kts | 188° |
| 2026-05-04 18:49 | 24.06463 | -110.36355 | 389 ft | 176 kts | 188° |
| 2026-05-04 18:49 | 24.05391 | -110.36837 | 1292 ft | 174 kts | 231° |
| 2026-05-04 18:49 | 24.05158 | -110.38122 | 1967 ft | 196 kts | 288° |
| 2026-05-04 18:49 | 24.06191 | -110.39219 | 2505 ft | 234 kts | 343° |
| 2026-05-04 18:50 | 24.07925 | -110.39022 | 2903 ft | 282 kts | 27° |
| 2026-05-04 18:50 | 24.09374 | -110.37384 | 3496 ft | 323 kts | 63° |
| 2026-05-04 18:50 | 24.10021 | -110.35036 | 4779 ft | 333 kts | 76° |
| 2026-05-04 18:50 | 24.10527 | -110.32649 | 6565 ft | 328 kts | 76° |
| 2026-05-04 18:51 | 24.11025 | -110.30275 | 8213 ft | 328 kts | 76° |
| 2026-05-04 18:51 | 24.11537 | -110.27743 | 8936 ft | 359 kts | 76° |
| 2026-05-04 18:51 | 24.12077 | -110.24966 | 9386 ft | 395 kts | 76° |
| 2026-05-04 18:51 | 24.12630 | -110.22026 | 9778 ft | 379 kts | 77° |
| 2026-05-04 18:52 | 24.13125 | -110.19334 | 10153 ft | 344 kts | 77° |
| 2026-05-04 18:52 | 24.13575 | -110.16882 | 10573 ft | 323 kts | 76° |
| 2026-05-04 18:52 | 24.14031 | -110.14429 | 10987 ft | 336 kts | 76° |
| 2026-05-04 18:52 | 24.14512 | -110.11867 | 11399 ft | 354 kts | 76° |
| 2026-05-04 18:53 | 24.15085 | -110.09206 | 11805 ft | 370 kts | 73° |
| 2026-05-04 18:53 | 24.15767 | -110.06437 | 12224 ft | 384 kts | 72° |
| 2026-05-04 18:53 | 24.16481 | -110.03588 | 12655 ft | 393 kts | 73° |
| 2026-05-04 18:53 | 24.17200 | -110.00696 | 13042 ft | 396 kts | 73° |
| 2026-05-04 18:54 | 24.17914 | -109.97797 | 13458 ft | 398 kts | 73° |
| 2026-05-04 18:54 | 24.18638 | -109.94850 | 13892 ft | 399 kts | 73° |
| 2026-05-04 18:54 | 24.19354 | -109.91927 | 14327 ft | 401 kts | 73° |
| 2026-05-04 18:54 | 24.20078 | -109.88953 | 14736 ft | 403 kts | 73° |
| 2026-05-04 18:55 | 24.20797 | -109.85994 | 15141 ft | 405 kts | 73° |
| 2026-05-04 18:55 | 24.22241 | -109.80046 | 16001 ft | 409 kts | 73° |
| 2026-05-04 18:55 | 24.22971 | -109.77035 | 16430 ft | 411 kts | 74° |
| 2026-05-04 18:56 | 24.23707 | -109.74007 | 16781 ft | 412 kts | 74° |
| 2026-05-04 18:56 | 24.24436 | -109.70995 | 16845 ft | 412 kts | 74° |
| 2026-05-04 18:56 | 24.25170 | -109.67958 | 16858 ft | 411 kts | 74° |
| 2026-05-04 18:56 | 24.25899 | -109.64932 | 16841 ft | 411 kts | 74° |
| 2026-05-04 18:57 | 24.26624 | -109.61927 | 16871 ft | 411 kts | 74° |
| 2026-05-04 18:57 | 24.27357 | -109.58879 | 16843 ft | 411 kts | 74° |
| 2026-05-04 18:57 | 24.28084 | -109.55852 | 16828 ft | 411 kts | 74° |
| 2026-05-04 18:57 | 24.28811 | -109.52823 | 16855 ft | 411 kts | 74° |
| 2026-05-04 18:58 | 24.29536 | -109.49800 | 16858 ft | 411 kts | 74° |
| 2026-05-04 18:58 | 24.30260 | -109.46777 | 16854 ft | 411 kts | 74° |
| 2026-05-04 18:58 | 24.30978 | -109.43778 | 16855 ft | 411 kts | 74° |
| 2026-05-04 18:58 | 24.31703 | -109.40745 | 16857 ft | 412 kts | 74° |
| 2026-05-04 18:59 | 24.32431 | -109.37695 | 16856 ft | 411 kts | 74° |
| 2026-05-04 18:59 | 24.33149 | -109.34686 | 16850 ft | 411 kts | 74° |
| 2026-05-04 18:59 | 24.33870 | -109.31661 | 16832 ft | 410 kts | 74° |
| 2026-05-04 18:59 | 24.34594 | -109.28621 | 16856 ft | 410 kts | 74° |
| 2026-05-04 19:00 | 24.35317 | -109.25583 | 16694 ft | 410 kts | 74° |
| 2026-05-04 19:00 | 24.36029 | -109.22590 | 16402 ft | 404 kts | 74° |
| 2026-05-04 19:00 | 24.36727 | -109.19647 | 16176 ft | 400 kts | 74° |
| 2026-05-04 19:00 | 24.37433 | -109.16672 | 16036 ft | 398 kts | 74° |
| 2026-05-04 19:01 | 24.38123 | -109.13759 | 15856 ft | 399 kts | 74° |